sensor_id;sensor_type;location;lat;lon;timestamp;temperature;humidity
23579;DHT22;11967;50.852;4.400;2023-03-01T00:01:53;8.70;81.60
23579;DHT22;11967;50.852;4.400;2023-03-01T00:04:19;8.60;82.00
23579;DHT22;11967;50.852;4.400;2023-03-01T00:06:44;8.70;82.40
23579;DHT22;11967;50.852;4.400;2023-03-01T00:09:12;8.70;82.60
23579;DHT22;11967;50.852;4.400;2023-03-01T00:11:38;8.80;83.00
23579;DHT22;11967;50.852;4.400;2023-03-01T00:14:04;8.70;82.40
23579;DHT22;11967;50.852;4.400;2023-03-01T00:16:37;8.60;83.00
23579;DHT22;11967;50.852;4.400;2023-03-01T00:19:05;8.60;83.30
23579;DHT22;11967;50.852;4.400;2023-03-01T00:21:31;8.30;83.40
23579;DHT22;11967;50.852;4.400;2023-03-01T00:23:57;8.50;84.30
23579;DHT22;11967;50.852;4.400;2023-03-01T00:26:24;8.40;85.00
23579;DHT22;11967;50.852;4.400;2023-03-01T00:28:51;8.50;84.00
23579;DHT22;11967;50.852;4.400;2023-03-01T00:31:22;8.50;84.70
23579;DHT22;11967;50.852;4.400;2023-03-01T00:33:48;8.50;83.80
23579;DHT22;11967;50.852;4.400;2023-03-01T00:36:15;8.50;84.40
23579;DHT22;11967;50.852;4.400;2023-03-01T00:38:42;8.40;84.40
23579;DHT22;11967;50.852;4.400;2023-03-01T00:41:12;8.40;84.90
23579;DHT22;11967;50.852;4.400;2023-03-01T00:43:38;8.30;85.40
23579;DHT22;11967;50.852;4.400;2023-03-01T00:46:08;8.30;85.10
23579;DHT22;11967;50.852;4.400;2023-03-01T00:48:35;8.20;85.40
23579;DHT22;11967;50.852;4.400;2023-03-01T00:53:36;8.20;86.60
23579;DHT22;11967;50.852;4.400;2023-03-01T00:56:02;8.30;87.00
23579;DHT22;11967;50.852;4.400;2023-03-01T00:58:29;8.40;86.30
23579;DHT22;11967;50.852;4.400;2023-03-01T01:00:56;8.30;86.00
23579;DHT22;11967;50.852;4.400;2023-03-01T01:03:23;8.30;86.00
23579;DHT22;11967;50.852;4.400;2023-03-01T01:05:51;8.30;86.00
23579;DHT22;11967;50.852;4.400;2023-03-01T01:08:16;8.20;86.20
23579;DHT22;11967;50.852;4.400;2023-03-01T01:10:44;8.20;86.40
23579;DHT22;11967;50.852;4.400;2023-03-01T01:13:10;8.10;86.30
23579;DHT22;11967;50.852;4.400;2023-03-01T01:15:36;8.10;86.70
23579;DHT22;11967;50.852;4.400;2023-03-01T01:18:02;8.20;86.80
23579;DHT22;11967;50.852;4.400;2023-03-01T01:20:27;8.10;87.10
23579;DHT22;11967;50.852;4.400;2023-03-01T01:22:53;8.20;87.50
23579;DHT22;11967;50.852;4.400;2023-03-01T01:25:19;8.10;87.10
23579;DHT22;11967;50.852;4.400;2023-03-01T01:27:44;8.00;87.70
23579;DHT22;11967;50.852;4.400;2023-03-01T01:30:10;8.10;88.20
23579;DHT22;11967;50.852;4.400;2023-03-01T01:32:36;8.10;87.70
23579;DHT22;11967;50.852;4.400;2023-03-01T01:35:02;8.20;87.90
23579;DHT22;11967;50.852;4.400;2023-03-01T01:37:28;8.20;87.70
23579;DHT22;11967;50.852;4.400;2023-03-01T01:40:00;8.10;87.30
23579;DHT22;11967;50.852;4.400;2023-03-01T01:42:28;8.10;87.80
23579;DHT22;11967;50.852;4.400;2023-03-01T01:45:30;7.90;88.00
23579;DHT22;11967;50.852;4.400;2023-03-01T01:48:02;8.00;89.00
23579;DHT22;11967;50.852;4.400;2023-03-01T01:54:31;7.90;88.60
23579;DHT22;11967;50.852;4.400;2023-03-01T01:57:03;7.70;89.40
23579;DHT22;11967;50.852;4.400;2023-03-01T01:59:33;7.70;89.70
23579;DHT22;11967;50.852;4.400;2023-03-01T02:02:00;7.70;89.50
23579;DHT22;11967;50.852;4.400;2023-03-01T02:04:28;7.70;90.00
23579;DHT22;11967;50.852;4.400;2023-03-01T02:07:05;7.70;89.70
23579;DHT22;11967;50.852;4.400;2023-03-01T02:09:34;7.70;89.90
23579;DHT22;11967;50.852;4.400;2023-03-01T02:12:01;7.80;89.60
23579;DHT22;11967;50.852;4.400;2023-03-01T02:14:27;7.70;90.00
23579;DHT22;11967;50.852;4.400;2023-03-01T02:16:53;7.70;90.50
23579;DHT22;11967;50.852;4.400;2023-03-01T02:22:34;7.60;90.20
23579;DHT22;11967;50.852;4.400;2023-03-01T02:27:59;7.70;90.40
23579;DHT22;11967;50.852;4.400;2023-03-01T02:30:28;7.80;90.30
23579;DHT22;11967;50.852;4.400;2023-03-01T02:32:56;7.80;90.40
23579;DHT22;11967;50.852;4.400;2023-03-01T02:35:30;7.70;90.20
23579;DHT22;11967;50.852;4.400;2023-03-01T02:37:57;7.70;90.50
23579;DHT22;11967;50.852;4.400;2023-03-01T02:40:28;7.80;90.70
23579;DHT22;11967;50.852;4.400;2023-03-01T02:42:57;7.90;90.70
23579;DHT22;11967;50.852;4.400;2023-03-01T02:45:24;7.70;90.70
23579;DHT22;11967;50.852;4.400;2023-03-01T02:47:50;7.80;90.70
23579;DHT22;11967;50.852;4.400;2023-03-01T02:53:05;7.80;90.50
23579;DHT22;11967;50.852;4.400;2023-03-01T02:55:34;7.70;90.90
23579;DHT22;11967;50.852;4.400;2023-03-01T02:58:08;7.80;90.90
23579;DHT22;11967;50.852;4.400;2023-03-01T03:00:38;7.90;90.70
23579;DHT22;11967;50.852;4.400;2023-03-01T03:03:06;7.80;90.70
23579;DHT22;11967;50.852;4.400;2023-03-01T03:05:33;7.60;90.70
23579;DHT22;11967;50.852;4.400;2023-03-01T03:08:02;7.50;91.00
23579;DHT22;11967;50.852;4.400;2023-03-01T03:10:31;7.60;91.30
23579;DHT22;11967;50.852;4.400;2023-03-01T03:13:03;7.40;91.10
23579;DHT22;11967;50.852;4.400;2023-03-01T03:15:29;7.30;91.50
23579;DHT22;11967;50.852;4.400;2023-03-01T03:17:56;7.60;91.80
23579;DHT22;11967;50.852;4.400;2023-03-01T03:20:26;7.60;91.30
23579;DHT22;11967;50.852;4.400;2023-03-01T03:22:54;7.50;91.40
23579;DHT22;11967;50.852;4.400;2023-03-01T03:25:21;7.40;91.60
23579;DHT22;11967;50.852;4.400;2023-03-01T03:27:49;7.40;91.90
23579;DHT22;11967;50.852;4.400;2023-03-01T03:30:19;7.50;91.90
23579;DHT22;11967;50.852;4.400;2023-03-01T03:32:46;7.40;91.90
23579;DHT22;11967;50.852;4.400;2023-03-01T03:35:23;7.40;92.10
23579;DHT22;11967;50.852;4.400;2023-03-01T03:37:50;7.40;92.00
23579;DHT22;11967;50.852;4.400;2023-03-01T03:40:39;7.40;91.80
23579;DHT22;11967;50.852;4.400;2023-03-01T03:43:25;7.40;92.30
23579;DHT22;11967;50.852;4.400;2023-03-01T03:45:51;7.40;91.90
23579;DHT22;11967;50.852;4.400;2023-03-01T03:48:17;7.40;92.10
23579;DHT22;11967;50.852;4.400;2023-03-01T03:50:48;7.40;92.00
23579;DHT22;11967;50.852;4.400;2023-03-01T03:53:14;7.30;92.10
23579;DHT22;11967;50.852;4.400;2023-03-01T03:55:40;7.20;92.30
23579;DHT22;11967;50.852;4.400;2023-03-01T03:58:08;7.00;92.60
23579;DHT22;11967;50.852;4.400;2023-03-01T04:00:40;7.10;93.00
23579;DHT22;11967;50.852;4.400;2023-03-01T04:03:06;7.00;92.90
23579;DHT22;11967;50.852;4.400;2023-03-01T04:05:33;7.10;93.00
23579;DHT22;11967;50.852;4.400;2023-03-01T04:07:59;7.10;92.90
23579;DHT22;11967;50.852;4.400;2023-03-01T04:10:29;7.10;92.70
23579;DHT22;11967;50.852;4.400;2023-03-01T04:12:55;7.00;93.20
23579;DHT22;11967;50.852;4.400;2023-03-01T04:15:25;6.90;93.40
23579;DHT22;11967;50.852;4.400;2023-03-01T04:17:52;7.00;93.60
23579;DHT22;11967;50.852;4.400;2023-03-01T04:20:23;7.10;93.40
23579;DHT22;11967;50.852;4.400;2023-03-01T04:23:12;7.10;93.30
23579;DHT22;11967;50.852;4.400;2023-03-01T04:25:42;7.00;93.20
23579;DHT22;11967;50.852;4.400;2023-03-01T04:28:09;7.00;93.50
23579;DHT22;11967;50.852;4.400;2023-03-01T04:30:36;7.00;93.60
23579;DHT22;11967;50.852;4.400;2023-03-01T04:33:06;7.00;93.40
23579;DHT22;11967;50.852;4.400;2023-03-01T04:35:32;6.90;93.50
23579;DHT22;11967;50.852;4.400;2023-03-01T04:37:59;6.80;93.80
23579;DHT22;11967;50.852;4.400;2023-03-01T04:40:25;6.80;94.20
23579;DHT22;11967;50.852;4.400;2023-03-01T04:42:51;6.80;94.00
23579;DHT22;11967;50.852;4.400;2023-03-01T04:45:17;6.90;94.00
23579;DHT22;11967;50.852;4.400;2023-03-01T04:47:44;6.80;94.10
23579;DHT22;11967;50.852;4.400;2023-03-01T04:50:13;6.80;94.40
23579;DHT22;11967;50.852;4.400;2023-03-01T04:52:39;6.60;94.40
23579;DHT22;11967;50.852;4.400;2023-03-01T04:55:06;6.60;94.70
23579;DHT22;11967;50.852;4.400;2023-03-01T04:57:32;6.60;94.70
23579;DHT22;11967;50.852;4.400;2023-03-01T04:59:58;6.50;94.90
23579;DHT22;11967;50.852;4.400;2023-03-01T05:02:24;6.50;95.10
23579;DHT22;11967;50.852;4.400;2023-03-01T05:04:49;6.60;95.30
23579;DHT22;11967;50.852;4.400;2023-03-01T05:07:15;6.50;95.10
23579;DHT22;11967;50.852;4.400;2023-03-01T05:09:45;6.60;95.40
23579;DHT22;11967;50.852;4.400;2023-03-01T05:12:11;6.60;95.60
23579;DHT22;11967;50.852;4.400;2023-03-01T05:14:37;6.60;95.40
23579;DHT22;11967;50.852;4.400;2023-03-01T05:17:05;6.80;95.60
23579;DHT22;11967;50.852;4.400;2023-03-01T05:19:32;6.60;95.20
23579;DHT22;11967;50.852;4.400;2023-03-01T05:21:58;6.60;95.70
23579;DHT22;11967;50.852;4.400;2023-03-01T05:24:27;6.60;95.80
23579;DHT22;11967;50.852;4.400;2023-03-01T05:26:54;6.60;95.50
23579;DHT22;11967;50.852;4.400;2023-03-01T05:29:22;6.60;95.70
23579;DHT22;11967;50.852;4.400;2023-03-01T05:31:54;6.70;96.10
23579;DHT22;11967;50.852;4.400;2023-03-01T05:34:27;6.70;96.50
23579;DHT22;11967;50.852;4.400;2023-03-01T05:36:53;6.60;96.60
23579;DHT22;11967;50.852;4.400;2023-03-01T05:39:24;6.60;96.70
23579;DHT22;11967;50.852;4.400;2023-03-01T05:41:55;6.50;96.40
23579;DHT22;11967;50.852;4.400;2023-03-01T05:44:22;6.40;96.40
23579;DHT22;11967;50.852;4.400;2023-03-01T05:46:48;6.50;96.50
23579;DHT22;11967;50.852;4.400;2023-03-01T05:49:13;6.40;96.60
23579;DHT22;11967;50.852;4.400;2023-03-01T05:51:40;6.40;96.30
23579;DHT22;11967;50.852;4.400;2023-03-01T05:54:06;6.50;96.50
23579;DHT22;11967;50.852;4.400;2023-03-01T05:56:36;6.60;96.50
23579;DHT22;11967;50.852;4.400;2023-03-01T05:59:03;6.50;96.60
23579;DHT22;11967;50.852;4.400;2023-03-01T06:01:31;6.50;96.60
23579;DHT22;11967;50.852;4.400;2023-03-01T06:03:56;6.30;96.90
23579;DHT22;11967;50.852;4.400;2023-03-01T06:06:22;6.40;96.80
23579;DHT22;11967;50.852;4.400;2023-03-01T06:08:50;6.40;97.00
23579;DHT22;11967;50.852;4.400;2023-03-01T06:11:15;6.30;97.20
23579;DHT22;11967;50.852;4.400;2023-03-01T06:13:42;6.30;97.30
23579;DHT22;11967;50.852;4.400;2023-03-01T06:16:08;6.30;97.00
23579;DHT22;11967;50.852;4.400;2023-03-01T06:18:34;6.20;97.20
23579;DHT22;11967;50.852;4.400;2023-03-01T06:21:00;6.10;97.60
23579;DHT22;11967;50.852;4.400;2023-03-01T06:23:26;6.20;97.80
23579;DHT22;11967;50.852;4.400;2023-03-01T06:25:52;6.10;98.10
23579;DHT22;11967;50.852;4.400;2023-03-01T06:28:18;6.20;98.10
23579;DHT22;11967;50.852;4.400;2023-03-01T06:30:44;6.10;98.40
23579;DHT22;11967;50.852;4.400;2023-03-01T06:33:10;6.20;98.10
23579;DHT22;11967;50.852;4.400;2023-03-01T06:35:36;6.20;98.10
23579;DHT22;11967;50.852;4.400;2023-03-01T06:38:02;6.20;98.10
23579;DHT22;11967;50.852;4.400;2023-03-01T06:40:30;6.10;98.30
23579;DHT22;11967;50.852;4.400;2023-03-01T06:42:56;6.20;98.10
23579;DHT22;11967;50.852;4.400;2023-03-01T06:45:22;6.20;98.40
23579;DHT22;11967;50.852;4.400;2023-03-01T06:47:48;6.30;98.50
23579;DHT22;11967;50.852;4.400;2023-03-01T06:50:15;6.30;98.20
23579;DHT22;11967;50.852;4.400;2023-03-01T06:52:41;6.30;98.40
23579;DHT22;11967;50.852;4.400;2023-03-01T06:55:09;6.30;98.60
23579;DHT22;11967;50.852;4.400;2023-03-01T06:57:35;6.30;99.40
23579;DHT22;11967;50.852;4.400;2023-03-01T07:00:02;6.30;99.80
23579;DHT22;11967;50.852;4.400;2023-03-01T07:02:27;6.30;99.10
23579;DHT22;11967;50.852;4.400;2023-03-01T07:04:53;6.30;98.90
23579;DHT22;11967;50.852;4.400;2023-03-01T07:07:19;6.20;98.70
23579;DHT22;11967;50.852;4.400;2023-03-01T07:09:45;6.30;98.90
23579;DHT22;11967;50.852;4.400;2023-03-01T07:12:11;6.30;98.60
23579;DHT22;11967;50.852;4.400;2023-03-01T07:14:37;6.20;98.80
23579;DHT22;11967;50.852;4.400;2023-03-01T07:17:02;6.20;99.60
23579;DHT22;11967;50.852;4.400;2023-03-01T07:19:28;6.30;99.70
23579;DHT22;11967;50.852;4.400;2023-03-01T07:21:54;6.20;99.20
23579;DHT22;11967;50.852;4.400;2023-03-01T07:24:21;6.20;99.30
23579;DHT22;11967;50.852;4.400;2023-03-01T07:26:51;6.20;99.20
23579;DHT22;11967;50.852;4.400;2023-03-01T07:29:17;6.20;99.60
23579;DHT22;11967;50.852;4.400;2023-03-01T07:31:44;6.20;99.60
23579;DHT22;11967;50.852;4.400;2023-03-01T07:34:10;6.10;99.90
23579;DHT22;11967;50.852;4.400;2023-03-01T07:36:36;6.20;99.90
23579;DHT22;11967;50.852;4.400;2023-03-01T07:39:02;6.30;99.90
23579;DHT22;11967;50.852;4.400;2023-03-01T07:41:29;6.40;99.80
23579;DHT22;11967;50.852;4.400;2023-03-01T07:43:55;6.40;99.90
23579;DHT22;11967;50.852;4.400;2023-03-01T07:46:21;6.40;99.60
23579;DHT22;11967;50.852;4.400;2023-03-01T07:48:47;6.30;99.50
23579;DHT22;11967;50.852;4.400;2023-03-01T07:51:13;6.30;99.90
23579;DHT22;11967;50.852;4.400;2023-03-01T07:53:39;6.30;99.70
23579;DHT22;11967;50.852;4.400;2023-03-01T07:56:07;6.20;99.70
23579;DHT22;11967;50.852;4.400;2023-03-01T07:58:36;6.20;99.90
23579;DHT22;11967;50.852;4.400;2023-03-01T08:01:08;6.30;99.90
23579;DHT22;11967;50.852;4.400;2023-03-01T08:03:34;6.20;99.90
23579;DHT22;11967;50.852;4.400;2023-03-01T08:06:02;6.20;99.90
23579;DHT22;11967;50.852;4.400;2023-03-01T08:08:28;6.10;99.90
23579;DHT22;11967;50.852;4.400;2023-03-01T08:10:59;6.20;99.90
23579;DHT22;11967;50.852;4.400;2023-03-01T08:13:25;6.30;99.90
23579;DHT22;11967;50.852;4.400;2023-03-01T08:15:51;6.40;99.90
23579;DHT22;11967;50.852;4.400;2023-03-01T08:18:19;6.40;99.90
23579;DHT22;11967;50.852;4.400;2023-03-01T08:20:45;6.50;99.90
23579;DHT22;11967;50.852;4.400;2023-03-01T08:23:10;6.40;99.90
23579;DHT22;11967;50.852;4.400;2023-03-01T08:25:36;6.50;99.90
23579;DHT22;11967;50.852;4.400;2023-03-01T08:28:02;6.50;99.90
23579;DHT22;11967;50.852;4.400;2023-03-01T08:30:28;6.50;99.90
23579;DHT22;11967;50.852;4.400;2023-03-01T08:32:54;6.50;99.90
23579;DHT22;11967;50.852;4.400;2023-03-01T08:35:20;6.50;99.90
23579;DHT22;11967;50.852;4.400;2023-03-01T08:37:46;6.60;99.90
23579;DHT22;11967;50.852;4.400;2023-03-01T08:40:12;6.60;99.90
23579;DHT22;11967;50.852;4.400;2023-03-01T08:42:39;6.70;99.90
23579;DHT22;11967;50.852;4.400;2023-03-01T08:45:06;6.90;99.90
23579;DHT22;11967;50.852;4.400;2023-03-01T08:47:33;7.00;99.90
23579;DHT22;11967;50.852;4.400;2023-03-01T08:49:59;7.00;99.90
23579;DHT22;11967;50.852;4.400;2023-03-01T08:52:25;7.00;99.90
23579;DHT22;11967;50.852;4.400;2023-03-01T08:54:52;7.00;99.90
23579;DHT22;11967;50.852;4.400;2023-03-01T08:57:18;7.20;99.90
23579;DHT22;11967;50.852;4.400;2023-03-01T08:59:44;7.10;99.90
23579;DHT22;11967;50.852;4.400;2023-03-01T09:02:12;7.10;99.60
23579;DHT22;11967;50.852;4.400;2023-03-01T09:04:39;7.10;99.60
23579;DHT22;11967;50.852;4.400;2023-03-01T09:07:05;7.10;99.60
23579;DHT22;11967;50.852;4.400;2023-03-01T09:09:31;7.00;99.70
23579;DHT22;11967;50.852;4.400;2023-03-01T09:11:56;7.00;99.90
23579;DHT22;11967;50.852;4.400;2023-03-01T09:14:22;7.00;99.60
23579;DHT22;11967;50.852;4.400;2023-03-01T09:16:48;7.10;99.60
23579;DHT22;11967;50.852;4.400;2023-03-01T09:19:14;7.20;99.30
23579;DHT22;11967;50.852;4.400;2023-03-01T09:21:40;7.20;99.50
23579;DHT22;11967;50.852;4.400;2023-03-01T09:24:11;7.40;99.10
23579;DHT22;11967;50.852;4.400;2023-03-01T09:26:38;7.50;98.70
23579;DHT22;11967;50.852;4.400;2023-03-01T09:29:04;7.70;98.20
23579;DHT22;11967;50.852;4.400;2023-03-01T09:31:29;7.90;97.70
23579;DHT22;11967;50.852;4.400;2023-03-01T09:33:55;8.00;97.60
23579;DHT22;11967;50.852;4.400;2023-03-01T09:36:23;8.20;97.40
23579;DHT22;11967;50.852;4.400;2023-03-01T09:38:49;8.30;97.30
23579;DHT22;11967;50.852;4.400;2023-03-01T09:46:38;8.90;95.80
23579;DHT22;11967;50.852;4.400;2023-03-01T09:49:33;9.10;95.70
23579;DHT22;11967;50.852;4.400;2023-03-01T09:54:52;9.50;96.70
23579;DHT22;11967;50.852;4.400;2023-03-01T10:00:17;9.90;93.60
23579;DHT22;11967;50.852;4.400;2023-03-01T10:02:49;10.00;92.70
23579;DHT22;11967;50.852;4.400;2023-03-01T10:10:37;10.80;96.30
23579;DHT22;11967;50.852;4.400;2023-03-01T10:13:34;11.00;95.00
23579;DHT22;11967;50.852;4.400;2023-03-01T10:16:26;11.00;91.40
23579;DHT22;11967;50.852;4.400;2023-03-01T10:18:59;11.00;90.80
23579;DHT22;11967;50.852;4.400;2023-03-01T10:21:27;10.90;90.30
23579;DHT22;11967;50.852;4.400;2023-03-01T10:23:54;10.90;89.50
23579;DHT22;11967;50.852;4.400;2023-03-01T10:29:12;11.20;89.00
23579;DHT22;11967;50.852;4.400;2023-03-01T10:31:44;11.30;88.10
23579;DHT22;11967;50.852;4.400;2023-03-01T10:36:44;11.60;86.50
23579;DHT22;11967;50.852;4.400;2023-03-01T10:39:22;11.60;84.90
23579;DHT22;11967;50.852;4.400;2023-03-01T10:42:02;11.70;84.00
23579;DHT22;11967;50.852;4.400;2023-03-01T10:44:46;11.80;83.80
23579;DHT22;11967;50.852;4.400;2023-03-01T10:47:16;11.90;83.20
23579;DHT22;11967;50.852;4.400;2023-03-01T10:49:57;12.00;82.40
23579;DHT22;11967;50.852;4.400;2023-03-01T10:52:26;12.10;82.40
23579;DHT22;11967;50.852;4.400;2023-03-01T10:54:57;12.20;81.90
23579;DHT22;11967;50.852;4.400;2023-03-01T10:57:36;12.30;81.60
23579;DHT22;11967;50.852;4.400;2023-03-01T11:00:24;12.50;82.20
23579;DHT22;11967;50.852;4.400;2023-03-01T11:05:26;12.70;79.70
23579;DHT22;11967;50.852;4.400;2023-03-01T11:07:55;12.60;79.00
23579;DHT22;11967;50.852;4.400;2023-03-01T11:10:28;12.70;78.80
23579;DHT22;11967;50.852;4.400;2023-03-01T11:13:27;12.70;77.90
23579;DHT22;11967;50.852;4.400;2023-03-01T11:16:06;12.80;77.00
23579;DHT22;11967;50.852;4.400;2023-03-01T11:18:33;12.80;75.70
23579;DHT22;11967;50.852;4.400;2023-03-01T11:20:59;12.80;75.40
23579;DHT22;11967;50.852;4.400;2023-03-01T11:23:28;12.70;74.90
23579;DHT22;11967;50.852;4.400;2023-03-01T11:26:02;12.70;75.00
23579;DHT22;11967;50.852;4.400;2023-03-01T11:28:30;12.70;74.80
23579;DHT22;11967;50.852;4.400;2023-03-01T11:31:06;12.80;75.90
23579;DHT22;11967;50.852;4.400;2023-03-01T11:38:55;13.20;75.00
23579;DHT22;11967;50.852;4.400;2023-03-01T11:41:30;13.30;73.90
23579;DHT22;11967;50.852;4.400;2023-03-01T11:55:19;13.70;71.80
23579;DHT22;11967;50.852;4.400;2023-03-01T12:04:29;13.80;71.50
23579;DHT22;11967;50.852;4.400;2023-03-01T12:12:32;14.10;70.90
23579;DHT22;11967;50.852;4.400;2023-03-01T12:15:38;14.20;69.90
23579;DHT22;11967;50.852;4.400;2023-03-01T12:45:47;14.90;71.10
23579;DHT22;11967;50.852;4.400;2023-03-01T12:48:22;14.70;66.70
23579;DHT22;11967;50.852;4.400;2023-03-01T12:50:55;14.80;66.00
23579;DHT22;11967;50.852;4.400;2023-03-01T12:53:32;14.80;66.70
23579;DHT22;11967;50.852;4.400;2023-03-01T12:56:09;14.70;66.20
23579;DHT22;11967;50.852;4.400;2023-03-01T13:12:46;15.20;65.30
23579;DHT22;11967;50.852;4.400;2023-03-01T13:20:55;15.20;64.50
23579;DHT22;11967;50.852;4.400;2023-03-01T13:31:26;14.90;64.80
23579;DHT22;11967;50.852;4.400;2023-03-01T13:34:00;15.00;65.40
23579;DHT22;11967;50.852;4.400;2023-03-01T13:47:18;14.60;63.60
23579;DHT22;11967;50.852;4.400;2023-03-01T13:49:48;14.60;63.50
23579;DHT22;11967;50.852;4.400;2023-03-01T13:55:03;14.60;63.20
23579;DHT22;11967;50.852;4.400;2023-03-01T13:57:34;14.60;63.00
23579;DHT22;11967;50.852;4.400;2023-03-01T14:00:00;14.60;62.10
23579;DHT22;11967;50.852;4.400;2023-03-01T14:02:25;14.50;62.70
23579;DHT22;11967;50.852;4.400;2023-03-01T14:04:59;14.40;65.30
23579;DHT22;11967;50.852;4.400;2023-03-01T14:07:26;14.40;65.70
23579;DHT22;11967;50.852;4.400;2023-03-01T14:10:01;14.50;65.50
23579;DHT22;11967;50.852;4.400;2023-03-01T14:12:54;14.50;64.30
23579;DHT22;11967;50.852;4.400;2023-03-01T14:15:39;14.60;63.70
23579;DHT22;11967;50.852;4.400;2023-03-01T14:18:22;14.50;63.20
23579;DHT22;11967;50.852;4.400;2023-03-01T14:20:52;14.60;63.70
23579;DHT22;11967;50.852;4.400;2023-03-01T14:23:22;14.50;63.30
23579;DHT22;11967;50.852;4.400;2023-03-01T14:25:55;14.50;62.40
23579;DHT22;11967;50.852;4.400;2023-03-01T14:30:49;14.50;62.40
23579;DHT22;11967;50.852;4.400;2023-03-01T14:33:30;14.50;63.10
23579;DHT22;11967;50.852;4.400;2023-03-01T14:36:10;14.50;63.60
23579;DHT22;11967;50.852;4.400;2023-03-01T14:41:11;14.50;62.80
23579;DHT22;11967;50.852;4.400;2023-03-01T14:43:45;14.30;61.80
23579;DHT22;11967;50.852;4.400;2023-03-01T14:46:29;14.30;61.70
23579;DHT22;11967;50.852;4.400;2023-03-01T14:49:04;14.20;61.90
23579;DHT22;11967;50.852;4.400;2023-03-01T14:51:34;14.20;62.10
23579;DHT22;11967;50.852;4.400;2023-03-01T14:54:00;14.20;62.30
23579;DHT22;11967;50.852;4.400;2023-03-01T14:56:27;14.20;62.60
23579;DHT22;11967;50.852;4.400;2023-03-01T14:58:53;14.20;63.00
23579;DHT22;11967;50.852;4.400;2023-03-01T15:01:23;14.10;62.60
23579;DHT22;11967;50.852;4.400;2023-03-01T15:03:49;14.10;62.60
23579;DHT22;11967;50.852;4.400;2023-03-01T15:06:18;14.00;63.10
23579;DHT22;11967;50.852;4.400;2023-03-01T15:08:48;14.00;66.50
23579;DHT22;11967;50.852;4.400;2023-03-01T15:11:28;14.10;65.10
23579;DHT22;11967;50.852;4.400;2023-03-01T15:13:57;14.20;67.40
23579;DHT22;11967;50.852;4.400;2023-03-01T15:16:28;14.20;67.20
23579;DHT22;11967;50.852;4.400;2023-03-01T15:18:57;14.20;66.80
23579;DHT22;11967;50.852;4.400;2023-03-01T15:21:27;14.20;64.60
23579;DHT22;11967;50.852;4.400;2023-03-01T15:29:22;14.20;64.30
23579;DHT22;11967;50.852;4.400;2023-03-01T15:32:00;14.10;67.20
23579;DHT22;11967;50.852;4.400;2023-03-01T15:34:34;14.00;65.20
23579;DHT22;11967;50.852;4.400;2023-03-01T15:37:03;14.00;64.70
23579;DHT22;11967;50.852;4.400;2023-03-01T15:42:05;14.10;65.70
23579;DHT22;11967;50.852;4.400;2023-03-01T15:44:36;14.00;65.20
23579;DHT22;11967;50.852;4.400;2023-03-01T15:47:08;14.10;67.10
23579;DHT22;11967;50.852;4.400;2023-03-01T15:49:46;14.00;66.40
23579;DHT22;11967;50.852;4.400;2023-03-01T15:52:17;14.10;65.60
23579;DHT22;11967;50.852;4.400;2023-03-01T15:54:46;14.00;65.40
23579;DHT22;11967;50.852;4.400;2023-03-01T15:57:13;14.00;64.90
23579;DHT22;11967;50.852;4.400;2023-03-01T15:59:40;14.00;63.80
23579;DHT22;11967;50.852;4.400;2023-03-01T16:02:12;13.90;63.60
23579;DHT22;11967;50.852;4.400;2023-03-01T16:04:39;13.90;64.30
23579;DHT22;11967;50.852;4.400;2023-03-01T16:07:05;13.80;64.80
23579;DHT22;11967;50.852;4.400;2023-03-01T16:09:31;13.90;65.60
23579;DHT22;11967;50.852;4.400;2023-03-01T16:11:57;13.90;65.70
23579;DHT22;11967;50.852;4.400;2023-03-01T16:14:23;13.90;65.80
23579;DHT22;11967;50.852;4.400;2023-03-01T16:16:49;13.90;64.90
23579;DHT22;11967;50.852;4.400;2023-03-01T16:19:15;13.80;66.70
23579;DHT22;11967;50.852;4.400;2023-03-01T16:21:42;13.80;67.00
23579;DHT22;11967;50.852;4.400;2023-03-01T16:24:13;13.80;65.80
23579;DHT22;11967;50.852;4.400;2023-03-01T16:26:39;13.80;65.20
23579;DHT22;11967;50.852;4.400;2023-03-01T16:29:05;13.70;67.00
23579;DHT22;11967;50.852;4.400;2023-03-01T16:31:31;13.60;69.00
23579;DHT22;11967;50.852;4.400;2023-03-01T16:33:58;13.60;68.30
23579;DHT22;11967;50.852;4.400;2023-03-01T16:36:25;13.60;68.20
23579;DHT22;11967;50.852;4.400;2023-03-01T16:38:53;13.60;68.00
23579;DHT22;11967;50.852;4.400;2023-03-01T16:41:21;13.60;68.00
23579;DHT22;11967;50.852;4.400;2023-03-01T16:43:50;13.50;68.60
23579;DHT22;11967;50.852;4.400;2023-03-01T16:46:22;13.40;70.20
23579;DHT22;11967;50.852;4.400;2023-03-01T16:48:48;13.40;70.90
23579;DHT22;11967;50.852;4.400;2023-03-01T16:51:15;13.30;69.00
23579;DHT22;11967;50.852;4.400;2023-03-01T16:53:43;13.30;68.50
23579;DHT22;11967;50.852;4.400;2023-03-01T16:56:10;13.30;68.10
23579;DHT22;11967;50.852;4.400;2023-03-01T16:58:37;13.30;68.40
23579;DHT22;11967;50.852;4.400;2023-03-01T17:01:12;13.20;70.10
23579;DHT22;11967;50.852;4.400;2023-03-01T17:03:39;13.20;68.90
23579;DHT22;11967;50.852;4.400;2023-03-01T17:06:08;13.20;69.30
23579;DHT22;11967;50.852;4.400;2023-03-01T17:08:34;13.10;69.30
23579;DHT22;11967;50.852;4.400;2023-03-01T17:11:08;13.10;69.50
23579;DHT22;11967;50.852;4.400;2023-03-01T17:13:35;13.10;69.50
23579;DHT22;11967;50.852;4.400;2023-03-01T17:16:05;13.00;69.50
23579;DHT22;11967;50.852;4.400;2023-03-01T17:18:31;12.80;69.80
23579;DHT22;11967;50.852;4.400;2023-03-01T17:20:57;12.70;70.00
23579;DHT22;11967;50.852;4.400;2023-03-01T17:23:23;12.60;70.70
23579;DHT22;11967;50.852;4.400;2023-03-01T17:25:49;12.60;70.60
23579;DHT22;11967;50.852;4.400;2023-03-01T17:28:14;12.60;70.50
23579;DHT22;11967;50.852;4.400;2023-03-01T17:30:44;12.60;70.90
23579;DHT22;11967;50.852;4.400;2023-03-01T17:33:12;12.60;70.90
23579;DHT22;11967;50.852;4.400;2023-03-01T17:35:38;12.60;73.30
23579;DHT22;11967;50.852;4.400;2023-03-01T17:38:04;12.70;74.90
23579;DHT22;11967;50.852;4.400;2023-03-01T17:40:30;12.80;77.10
23579;DHT22;11967;50.852;4.400;2023-03-01T17:42:56;12.90;76.30
23579;DHT22;11967;50.852;4.400;2023-03-01T17:45:25;12.80;73.70
23579;DHT22;11967;50.852;4.400;2023-03-01T17:47:50;12.60;71.80
23579;DHT22;11967;50.852;4.400;2023-03-01T17:50:16;12.50;71.80
23579;DHT22;11967;50.852;4.400;2023-03-01T17:52:42;12.50;72.20
23579;DHT22;11967;50.852;4.400;2023-03-01T17:55:10;12.30;72.10
23579;DHT22;11967;50.852;4.400;2023-03-01T17:57:40;12.30;71.70
23579;DHT22;11967;50.852;4.400;2023-03-01T18:00:09;12.30;71.70
23579;DHT22;11967;50.852;4.400;2023-03-01T18:02:36;12.20;72.00
23579;DHT22;11967;50.852;4.400;2023-03-01T18:05:02;12.10;72.00
23579;DHT22;11967;50.852;4.400;2023-03-01T18:07:28;12.10;72.10
23579;DHT22;11967;50.852;4.400;2023-03-01T18:09:54;12.10;72.40
23579;DHT22;11967;50.852;4.400;2023-03-01T18:12:20;12.10;72.10
23579;DHT22;11967;50.852;4.400;2023-03-01T18:14:48;12.10;72.30
23579;DHT22;11967;50.852;4.400;2023-03-01T18:17:18;12.10;72.50
23579;DHT22;11967;50.852;4.400;2023-03-01T18:19:44;12.10;72.50
23579;DHT22;11967;50.852;4.400;2023-03-01T18:22:11;12.00;72.10